createdAt,value
2014-07-04T03:23:14.393Z,148
2014-07-04T03:23:32.096Z,149
2014-07-04T03:23:50.283Z,151
2014-07-04T03:24:08.627Z,152
2014-07-04T03:24:26.956Z,153
2014-07-04T03:24:44.534Z,154
2014-07-04T03:25:02.878Z,155
2014-07-04T03:25:21.067Z,155
2014-07-04T03:25:38.630Z,156
2014-07-04T03:25:56.974Z,158
2014-07-04T03:26:15.179Z,159
2014-07-04T03:26:32.741Z,160
2014-07-04T03:26:50.944Z,161
2014-07-04T03:27:09.273Z,162
2014-07-04T03:27:26.853Z,162
2014-07-04T03:27:44.431Z,164
2014-07-04T03:28:01.993Z,165
2014-07-04T03:28:19.698Z,165
2014-07-04T03:28:37.902Z,167
2014-07-04T03:28:56.105Z,168
2014-07-04T03:29:14.308Z,169
2014-07-04T03:29:32.497Z,170
2014-07-04T03:29:50.075Z,171
2014-07-04T03:30:08.279Z,172
2014-07-04T03:30:25.983Z,173
2014-07-04T03:30:43.561Z,174
2014-07-04T03:30:59.873Z,175
2014-07-04T03:31:18.079Z,176
2014-07-04T03:31:35.642Z,177
2014-07-04T03:31:53.220Z,178
2014-07-04T03:32:10.798Z,178
2014-07-04T03:32:28.987Z,179
2014-07-04T03:32:45.940Z,180
2014-07-04T03:33:04.877Z,181
2014-07-04T03:33:23.239Z,182
2014-07-04T03:33:40.817Z,183
2014-07-04T03:33:58.395Z,184
2014-07-04T03:34:16.601Z,185
2014-07-04T03:34:34.164Z,186
2014-07-04T03:34:52.367Z,187
2014-07-04T03:35:09.929Z,188
2014-07-04T03:35:27.633Z,188
2014-07-04T03:35:45.852Z,190
2014-07-04T03:36:04.040Z,191
2014-07-04T03:36:21.621Z,191
2014-07-04T03:36:39.199Z,192
2014-07-04T03:36:57.402Z,193
2014-07-04T03:37:15.589Z,194
2014-07-04T03:37:33.935Z,195
2014-07-04T03:37:52.123Z,196
2014-07-04T03:38:09.076Z,197
2014-07-04T03:38:27.264Z,198
2014-07-04T03:38:45.467Z,199
2014-07-04T03:39:03.046Z,200
2014-07-04T03:39:20.610Z,200
2014-07-04T03:39:38.813Z,201
2014-07-04T03:39:56.391Z,202
2014-07-04T03:40:14.579Z,203
2014-07-04T03:40:32.925Z,204
2014-07-04T03:40:50.628Z,205
2014-07-04T03:41:07.581Z,206
2014-07-04T03:41:25.786Z,206
2014-07-04T03:41:43.989Z,207
2014-07-04T03:42:01.692Z,208
2014-07-04T03:42:19.897Z,209
2014-07-04T03:42:38.225Z,209
2014-07-04T03:42:56.429Z,211
2014-07-04T03:43:14.757Z,211
2014-07-04T03:43:32.337Z,212
2014-07-04T03:43:50.540Z,213
2014-07-04T03:44:08.743Z,213
2014-07-04T03:44:26.308Z,215
2014-07-04T03:44:44.511Z,215
2014-07-04T03:45:02.854Z,216
2014-07-04T03:45:21.059Z,217
2014-07-04T03:45:38.621Z,219
2014-07-04T03:45:56.824Z,218
2014-07-04T03:46:13.762Z,219
2014-07-04T03:46:31.342Z,220
2014-07-04T03:46:48.920Z,221
2014-07-04T03:47:06.482Z,222
2014-07-04T03:47:24.188Z,223
2014-07-04T03:47:41.141Z,223
2014-07-04T03:47:59.344Z,224
2014-07-04T03:48:17.672Z,225
2014-07-04T03:48:35.877Z,226
2014-07-04T03:48:54.080Z,227
2014-07-04T03:49:12.268Z,228
2014-07-04T03:49:29.895Z,229
2014-07-04T03:49:48.098Z,229
2014-07-04T03:50:06.301Z,231
2014-07-04T03:50:24.506Z,231
2014-07-04T03:50:42.694Z,232
2014-07-04T03:50:59.022Z,233
2014-07-04T03:51:17.209Z,234
2014-07-04T03:51:34.914Z,234
2014-07-04T03:51:52.477Z,235
2014-07-04T03:52:10.680Z,236
2014-07-04T03:52:27.635Z,237
2014-07-04T03:52:45.823Z,238
2014-07-04T03:53:04.026Z,238
2014-07-04T03:53:21.590Z,239
2014-07-04T03:53:39.793Z,240
2014-07-04T03:53:57.996Z,241
2014-07-04T03:54:16.184Z,242
2014-07-04T03:54:34.388Z,243
2014-07-04T03:54:52.591Z,244
2014-07-04T03:55:10.169Z,244
2014-07-04T03:55:28.374Z,245
2014-07-04T03:55:45.953Z,246
2014-07-04T03:56:04.281Z,247
2014-07-04T03:56:21.986Z,248
2014-07-04T03:56:40.189Z,248
2014-07-04T03:56:57.126Z,249
2014-07-04T03:57:15.470Z,250
2014-07-04T03:57:33.676Z,251
2014-07-04T03:57:52.004Z,252
2014-07-04T03:58:10.208Z,253
2014-07-04T03:58:27.787Z,254
2014-07-04T03:58:45.349Z,255
2014-07-04T03:59:02.927Z,256
2014-07-04T03:59:20.505Z,257
2014-07-04T03:59:38.836Z,258
2014-07-04T03:59:56.414Z,259
2014-07-04T04:00:14.742Z,260
2014-07-04T04:00:32.947Z,261
2014-07-04T04:00:51.291Z,262
2014-07-04T04:01:08.869Z,264
2014-07-04T04:01:26.574Z,265
2014-07-04T04:01:43.027Z,266
2014-07-04T04:02:01.355Z,267
2014-07-04T04:02:19.558Z,268
2014-07-04T04:02:37.263Z,270
2014-07-04T04:02:55.482Z,271
2014-07-04T04:03:13.060Z,272
2014-07-04T04:03:31.266Z,273
2014-07-04T04:03:49.470Z,274
2014-07-04T04:04:06.407Z,275
2014-07-04T04:04:24.611Z,277
2014-07-04T04:04:42.814Z,278
2014-07-04T04:04:59.752Z,279
2014-07-04T04:05:17.330Z,280
2014-07-04T04:05:35.661Z,282
2014-07-04T04:05:53.239Z,282
2014-07-04T04:06:11.442Z,283
2014-07-04T04:06:29.006Z,284
2014-07-04T04:06:46.584Z,285
2014-07-04T04:07:04.771Z,286
2014-07-04T04:07:21.100Z,287
2014-07-04T04:07:39.305Z,288
2014-07-04T04:07:57.633Z,289
2014-07-04T04:08:15.852Z,290
2014-07-04T04:08:33.557Z,291
2014-07-04T04:08:51.260Z,291
2014-07-04T04:09:09.463Z,292
2014-07-04T04:09:27.042Z,293
2014-07-04T04:09:45.230Z,293
2014-07-04T04:10:03.589Z,294
2014-07-04T04:10:21.792Z,295
2014-07-04T04:10:39.998Z,295
2014-07-04T04:10:58.201Z,296
2014-07-04T04:11:16.404Z,297
2014-07-04T04:11:34.594Z,298
2014-07-04T04:11:52.188Z,298
2014-07-04T04:12:10.531Z,299
2014-07-04T04:12:28.845Z,300
2014-07-04T04:12:46.423Z,301
2014-07-04T04:13:04.611Z,302
2014-07-04T04:13:22.829Z,302
2014-07-04T04:13:41.020Z,303
2014-07-04T04:13:59.223Z,304
2014-07-04T04:14:16.785Z,304
2014-07-04T04:14:33.256Z,305
2014-07-04T04:14:51.600Z,306
2014-07-04T04:15:08.678Z,307
2014-07-04T04:15:26.881Z,308
2014-07-04T04:15:44.446Z,309
2014-07-04T04:16:02.649Z,310
2014-07-04T04:16:20.227Z,311
2014-07-04T04:16:37.791Z,311
2014-07-04T04:16:55.354Z,312
2014-07-04T04:17:12.932Z,313
2014-07-04T04:17:30.511Z,314
2014-07-04T04:17:48.714Z,315
2014-07-04T04:18:06.292Z,315
2014-07-04T04:18:23.871Z,316
2014-07-04T04:18:41.452Z,317
2014-07-04T04:18:59.014Z,317
2014-07-04T04:19:17.233Z,318
2014-07-04T04:19:34.171Z,319
2014-07-04T04:19:52.375Z,320
2014-07-04T04:20:09.453Z,321
2014-07-04T04:20:27.156Z,321
2014-07-04T04:20:45.361Z,322
2014-07-04T04:21:02.939Z,323
2014-07-04T04:21:21.127Z,324
2014-07-04T04:21:38.832Z,325
2014-07-04T04:21:57.035Z,325
2014-07-04T04:22:15.238Z,326
2014-07-04T04:22:32.943Z,327
2014-07-04T04:22:51.146Z,328
2014-07-04T04:23:08.849Z,329
2014-07-04T04:23:26.552Z,329
2014-07-04T04:23:44.898Z,329
2014-07-04T04:24:03.101Z,330
2014-07-04T04:24:21.304Z,330
2014-07-04T04:24:39.635Z,331
2014-07-04T04:24:57.213Z,331
2014-07-04T04:25:15.541Z,332
2014-07-04T04:25:33.121Z,333
2014-07-04T04:25:50.699Z,333
2014-07-04T04:26:08.277Z,334
2014-07-04T04:26:26.480Z,335
2014-07-04T04:26:44.810Z,336
2014-07-04T04:27:02.373Z,337
2014-07-04T04:27:20.092Z,337
2014-07-04T04:27:38.281Z,338
2014-07-04T04:27:56.625Z,338
2014-07-04T04:28:14.187Z,339
2014-07-04T04:28:31.127Z,339
2014-07-04T04:28:48.846Z,339
2014-07-04T04:29:06.424Z,340
2014-07-04T04:29:23.986Z,340
2014-07-04T04:29:41.550Z,341
2014-07-04T04:29:59.753Z,341
2014-07-04T04:30:17.456Z,342
2014-07-04T04:30:35.787Z,342
2014-07-04T04:30:53.490Z,343
2014-07-04T04:31:11.709Z,343
2014-07-04T04:31:29.272Z,344
2014-07-04T04:31:46.351Z,345
2014-07-04T04:32:04.554Z,345
2014-07-04T04:32:22.132Z,346
2014-07-04T04:32:40.525Z,346
2014-07-04T04:32:58.103Z,347
2014-07-04T04:33:15.665Z,347
2014-07-04T04:33:33.370Z,348
2014-07-04T04:33:51.089Z,348
2014-07-04T04:34:09.277Z,349
2014-07-04T04:34:26.495Z,349
2014-07-04T04:34:44.075Z,349
2014-07-04T04:35:02.404Z,350
2014-07-04T04:35:20.607Z,350
2014-07-04T04:35:37.669Z,350
2014-07-04T04:35:55.249Z,351
2014-07-04T04:36:12.843Z,352
2014-07-04T04:36:31.156Z,352
2014-07-04T04:36:49.376Z,353
2014-07-04T04:37:07.564Z,353
2014-07-04T04:37:24.501Z,353
2014-07-04T04:37:42.704Z,353
2014-07-04T04:38:00.286Z,354
2014-07-04T04:38:18.489Z,354
2014-07-04T04:38:36.817Z,354
2014-07-04T04:38:54.397Z,355
2014-07-04T04:39:12.584Z,355
2014-07-04T04:39:30.288Z,355
2014-07-04T04:39:47.881Z,356
2014-07-04T04:40:06.382Z,356
2014-07-04T04:40:25.445Z,357
2014-07-04T04:40:44.445Z,357
2014-07-04T04:41:02.760Z,358
2014-07-04T04:41:21.917Z,359
2014-07-04T04:41:40.792Z,359
2014-07-04T04:41:59.527Z,360
2014-07-04T04:42:17.668Z,360
2014-07-04T04:42:35.855Z,361
2014-07-04T04:42:53.574Z,361
2014-07-04T04:43:11.154Z,362
2014-07-04T04:43:29.482Z,362
2014-07-04T04:43:47.685Z,363
2014-07-04T04:44:05.266Z,363
2014-07-04T04:44:22.860Z,364
2014-07-04T04:44:41.188Z,364
2014-07-04T04:44:59.391Z,365
2014-07-04T04:45:17.595Z,365
2014-07-04T04:45:35.799Z,366
2014-07-04T04:45:54.002Z,367
2014-07-04T04:46:10.941Z,367
2014-07-04T04:46:28.519Z,368
2014-07-04T04:46:47.613Z,368
2014-07-04T04:47:05.818Z,369
2014-07-04T04:47:22.756Z,370
2014-07-04T04:47:40.959Z,370
2014-07-04T04:47:59.162Z,370
2014-07-04T04:48:17.367Z,370
2014-07-04T04:48:34.945Z,370
2014-07-04T04:48:52.523Z,371
2014-07-04T04:49:08.838Z,371
2014-07-04T04:49:27.041Z,372
2014-07-04T04:49:45.228Z,372
2014-07-04T04:50:03.434Z,373
2014-07-04T04:50:21.012Z,373
2014-07-04T04:50:39.199Z,374
2014-07-04T04:50:56.777Z,374
2014-07-04T04:51:13.717Z,374
2014-07-04T04:51:31.920Z,375
2014-07-04T04:51:49.482Z,375
2014-07-04T04:52:07.686Z,375
2014-07-04T04:52:24.765Z,375
2014-07-04T04:52:41.718Z,376
2014-07-04T04:52:59.905Z,376
2014-07-04T04:53:18.111Z,376
2014-07-04T04:53:35.690Z,377
2014-07-04T04:53:53.893Z,377
2014-07-04T04:54:12.098Z,378
2014-07-04T04:54:30.301Z,378
2014-07-04T04:54:47.879Z,378
2014-07-04T04:55:05.582Z,379
2014-07-04T04:55:23.912Z,379
2014-07-04T04:55:41.490Z,380
2014-07-04T04:55:59.694Z,380
2014-07-04T04:56:16.789Z,380
2014-07-04T04:56:34.492Z,381
2014-07-04T04:56:52.836Z,381
2014-07-04T04:57:11.024Z,381
2014-07-04T04:57:28.603Z,382
2014-07-04T04:57:46.197Z,382
2014-07-04T04:58:04.384Z,382
2014-07-04T04:58:21.965Z,383
2014-07-04T04:58:39.543Z,383
2014-07-04T04:58:57.746Z,384
2014-07-04T04:59:15.951Z,383
2014-07-04T04:59:33.513Z,383
2014-07-04T04:59:51.232Z,384
2014-07-04T05:00:09.435Z,384
2014-07-04T05:00:26.375Z,384
2014-07-04T05:00:43.329Z,385
2014-07-04T05:01:01.532Z,385
2014-07-04T05:01:19.111Z,386
2014-07-04T05:01:37.314Z,386
2014-07-04T05:01:55.517Z,386
2014-07-04T05:02:12.455Z,387
2014-07-04T05:02:30.035Z,387
2014-07-04T05:02:48.238Z,388
2014-07-04T05:03:05.175Z,388
2014-07-04T05:03:22.896Z,388
2014-07-04T05:03:40.521Z,389
2014-07-04T05:03:58.084Z,389
2014-07-04T05:04:15.665Z,389
2014-07-04T05:04:33.868Z,390
2014-07-04T05:04:53.477Z,390
2014-07-04T05:05:11.852Z,391
2014-07-04T05:05:30.072Z,367
2014-07-04T05:05:48.259Z,367
2014-07-04T05:06:05.963Z,368
2014-07-04T05:06:24.183Z,368
2014-07-04T05:06:41.746Z,369
2014-07-04T05:06:59.324Z,369
2014-07-04T05:07:16.902Z,369
2014-07-04T05:07:34.467Z,370
2014-07-04T05:07:52.670Z,370
2014-07-04T05:08:10.248Z,370
2014-07-04T05:08:27.953Z,370
2014-07-04T05:08:46.156Z,371
2014-07-04T05:09:03.734Z,371
2014-07-04T05:09:21.938Z,372
2014-07-04T05:09:40.126Z,372
2014-07-04T05:09:57.079Z,372
2014-07-04T05:10:15.282Z,372
2014-07-04T05:10:33.488Z,372
2014-07-04T05:10:50.566Z,373
2014-07-04T05:11:08.129Z,373
2014-07-04T05:11:24.583Z,373
2014-07-04T05:11:41.552Z,373
2014-07-04T05:11:59.114Z,373
2014-07-04T05:12:17.317Z,374
2014-07-04T05:12:34.897Z,374
2014-07-04T05:12:52.476Z,374
2014-07-04T05:13:10.038Z,374
2014-07-04T05:13:26.353Z,375
2014-07-04T05:13:44.556Z,375
2014-07-04T05:14:02.884Z,375
2014-07-04T05:14:20.464Z,376
2014-07-04T05:14:38.667Z,376
2014-07-04T05:14:56.370Z,376
2014-07-04T05:15:14.573Z,377
2014-07-04T05:15:32.763Z,377
2014-07-04T05:15:50.341Z,377
2014-07-04T05:16:08.044Z,377
2014-07-04T05:16:26.390Z,378
2014-07-04T05:16:43.952Z,378
2014-07-04T05:17:01.030Z,378
2014-07-04T05:17:18.609Z,378
2014-07-04T05:17:36.189Z,378
2014-07-04T05:17:54.392Z,379
2014-07-04T05:18:12.595Z,379
2014-07-04T05:18:30.801Z,379
2014-07-04T05:18:49.004Z,380
2014-07-04T05:19:06.582Z,380
2014-07-04T05:19:23.646Z,380
2014-07-04T05:19:41.865Z,380
2014-07-04T05:20:00.068Z,381
2014-07-04T05:20:18.396Z,381
2014-07-04T05:20:36.601Z,382
2014-07-04T05:20:53.554Z,382
2014-07-04T05:21:11.757Z,382
2014-07-04T05:21:29.462Z,383
2014-07-04T05:21:45.915Z,383
2014-07-04T05:22:02.369Z,383
2014-07-04T05:22:19.931Z,383
2014-07-04T05:22:37.636Z,384
2014-07-04T05:22:55.839Z,384
2014-07-04T05:23:13.417Z,384
2014-07-04T05:23:30.497Z,385
2014-07-04T05:23:47.575Z,385
2014-07-04T05:24:05.934Z,385
2014-07-04T05:24:22.840Z,385
2014-07-04T05:24:39.937Z,386
2014-07-04T05:24:58.125Z,386
2014-07-04T05:25:15.828Z,386
2014-07-04T05:25:34.033Z,386
2014-07-04T05:25:52.236Z,386
2014-07-04T05:26:09.173Z,387
2014-07-04T05:26:27.378Z,387
2014-07-04T05:26:45.581Z,387
2014-07-04T05:27:03.284Z,388
2014-07-04T05:27:20.362Z,388
2014-07-04T05:27:37.943Z,388
2014-07-04T05:27:55.506Z,389
2014-07-04T05:28:13.224Z,389
2014-07-04T05:28:31.428Z,389
2014-07-04T05:28:49.757Z,390
2014-07-04T05:29:09.866Z,390
2014-07-04T05:29:26.463Z,390
2014-07-04T05:29:42.791Z,391
2014-07-04T05:30:00.494Z,391
2014-07-04T05:30:18.713Z,391
2014-07-04T05:30:36.417Z,391
2014-07-04T05:30:53.995Z,392
2014-07-04T05:31:11.557Z,392
2014-07-04T05:31:29.763Z,392
2014-07-04T05:31:46.716Z,392
2014-07-04T05:32:04.419Z,393
2014-07-04T05:32:21.997Z,393
2014-07-04T05:32:40.187Z,393
2014-07-04T05:32:57.891Z,393
2014-07-04T05:33:16.094Z,393
2014-07-04T05:33:33.033Z,394
2014-07-04T05:33:50.611Z,394
2014-07-04T05:34:08.814Z,394
2014-07-04T05:34:26.377Z,395
2014-07-04T05:34:44.581Z,395
2014-07-04T05:35:02.159Z,395
2014-07-04T05:35:19.862Z,396
2014-07-04T05:35:37.567Z,396
2014-07-04T05:35:56.224Z,396
2014-07-04T05:36:14.489Z,397
2014-07-04T05:36:32.210Z,397
2014-07-04T05:36:49.851Z,397
2014-07-04T05:37:06.929Z,397
2014-07-04T05:37:24.507Z,397
2014-07-04T05:37:42.712Z,397
2014-07-04T05:38:00.415Z,398
2014-07-04T05:38:18.743Z,398
2014-07-04T05:38:36.948Z,399
2014-07-04T05:38:55.152Z,399
2014-07-04T05:39:12.855Z,399
2014-07-04T05:39:31.060Z,399
2014-07-04T05:39:49.263Z,400
2014-07-04T05:40:07.466Z,400
2014-07-04T05:40:25.169Z,400
2014-07-04T05:40:43.515Z,401
2014-07-04T05:41:00.593Z,401
2014-07-04T05:41:18.171Z,401
2014-07-04T05:41:35.751Z,401
2014-07-04T05:41:53.314Z,402
2014-07-04T05:42:11.517Z,402
2014-07-04T05:42:29.095Z,402
2014-07-04T05:42:47.363Z,402
2014-07-04T05:43:05.566Z,402
2014-07-04T05:43:23.191Z,402
2014-07-04T05:43:41.395Z,403
2014-07-04T05:43:59.598Z,403
2014-07-04T05:44:17.848Z,403
2014-07-04T05:44:36.178Z,404
2014-07-04T05:44:54.397Z,404
2014-07-04T05:45:11.959Z,404
